Time;durP1;ratioP1;P1;durP2;ratioP2;P2;SDS_P1;SDS_P2;PMS_P1;PMS_P2;Temp;Humidity;BMP_temperature;BMP_pressure;BME280_temperature;BME280_humidity;BME280_pressure;Samples;Min_cycle;Max_cycle;Signal;HPM_P1;HPM_P2
2023/01/22 00:02:24;;;;;;;12.97;7.40;;;;;;;;;;5094876;28;20455;-78
2023/01/22 00:04:51;;;;;;;9.90;5.97;;;;;;;;;;5095189;28;20455;-79
2023/01/22 00:07:18;;;;;;;5.77;3.23;;;;;;;;;;5094600;28;20444;-78
2023/01/22 00:09:45;;;;;;;13.50;7.10;;;;;;;;;;5094776;28;20457;-79
2023/01/22 00:12:12;;;;;;;12.30;6.57;;;;;;;;;;5095100;28;20439;-80
2023/01/22 00:14:42;;;;;;;13.03;6.80;;;;;;;;;;5095132;28;20448;-80
2023/01/22 00:17:10;;;;;;;10.40;6.73;;;;;;;;;;5094941;28;20458;-80
2023/01/22 00:19:37;;;;;;;13.43;6.23;;;;;;;;;;5095016;28;20499;-80
2023/01/22 00:22:04;;;;;;;10.23;6.90;;;;;;;;;;5094818;28;20445;-80
2023/01/22 00:24:31;;;;;;;12.57;6.57;;;;;;;;;;5093653;28;20444;-82
2023/01/22 00:26:58;;;;;;;12.80;6.00;;;;;;;;;;5095093;28;20451;-81
2023/01/22 00:29:25;;;;;;;12.40;6.57;;;;;;;;;;5097340;28;20456;-78
2023/01/22 00:31:52;;;;;;;15.27;9.03;;;;;;;;;;5096229;28;20449;-78
2023/01/22 00:34:21;;;;;;;9.10;5.00;;;;;;;;;;5093941;28;20823;-79
2023/01/22 00:36:48;;;;;;;9.40;6.20;;;;;;;;;;5091816;28;20811;-78
2023/01/22 00:39:15;;;;;;;15.57;7.70;;;;;;;;;;5092263;28;20518;-77
2023/01/22 00:41:42;;;;;;;14.80;7.63;;;;;;;;;;5091962;28;20450;-79
2023/01/22 00:44:09;;;;;;;9.87;6.30;;;;;;;;;;5093267;28;20451;-79
2023/01/22 00:46:36;;;;;;;9.97;5.43;;;;;;;;;;5093365;28;20459;-79
2023/01/22 00:49:04;;;;;;;8.27;5.60;;;;;;;;;;5093308;28;20450;-78
2023/01/22 00:51:33;;;;;;;6.87;4.60;;;-1.20;99.90;;;;;;5093365;28;20453;-78
2023/01/22 00:54:00;;;;;;;11.90;6.37;;;;;;;;;;5091444;28;20458;-78
2023/01/22 00:56:28;;;;;;;10.97;5.70;;;;;;;;;;5092944;28;20956;-79
2023/01/22 00:58:55;;;;;;;8.30;6.23;;;;;;;;;;5092919;28;20489;-78
2023/01/22 01:01:22;;;;;;;5.43;3.93;;;;;;;;;;5093024;28;20450;-78
2023/01/22 01:03:49;;;;;;;8.50;5.97;;;;;;;;;;5093130;28;20457;-79
2023/01/22 01:06:18;;;;;;;11.43;6.77;;;-1.20;99.90;;;;;;5092659;28;20456;-77
2023/01/22 01:08:47;;;;;;;9.33;6.93;;;-1.30;99.90;;;;;;5091717;28;20816;-78
2023/01/22 01:11:16;;;;;;;13.03;5.80;;;-1.10;99.90;;;;;;5092915;28;20442;-78
2023/01/22 01:13:44;;;;;;;9.30;5.87;;;-1.10;99.90;;;;;;5092905;28;20457;-79
2023/01/22 01:16:13;;;;;;;6.73;4.43;;;-1.20;99.90;;;;;;5093033;28;20458;-77
2023/01/22 01:18:40;;;;;;;8.50;5.80;;;;;;;;;;5092786;28;20491;-77
2023/01/22 01:21:07;;;;;;;13.53;6.03;;;;;;;;;;5092339;28;20448;-78
2023/01/22 01:23:35;;;;;;;12.80;6.70;;;-1.10;99.90;;;;;;5091513;28;20461;-78
2023/01/22 01:26:06;;;;;;;8.77;5.50;;;;;;;;;;5092807;28;20450;-78
2023/01/22 01:28:35;;;;;;;9.60;5.97;;;;;;;;;;5092825;28;20455;-78
2023/01/22 01:31:03;;;;;;;9.17;5.23;;;;;;;;;;5092848;28;20446;-78
2023/01/22 01:33:30;;;;;;;3.23;2.63;;;;;;;;;;5092419;28;20774;-78
2023/01/22 01:36:01;;;;;;;7.83;4.00;;;-1.20;99.90;;;;;;5092755;28;20454;-79
2023/01/22 01:38:29;;;;;;;12.93;6.67;;;;;;;;;;5091398;28;20942;-78
2023/01/22 01:40:56;;;;;;;9.30;5.57;;;;;;;;;;5092655;28;20822;-78
2023/01/22 01:43:24;;;;;;;12.67;7.13;;;;;;;;;;5092741;28;20441;-78
2023/01/22 01:45:52;;;;;;;5.93;5.17;;;;;;;;;;5092724;28;20454;-79
2023/01/22 01:48:26;;;;;;;7.57;5.40;;;-1.00;99.90;;;;;;5092084;28;20438;-79
2023/01/22 01:50:59;;;;;;;11.40;6.67;;;-1.10;99.90;;;;;;5089804;28;20450;-79
2023/01/22 01:53:26;;;;;;;8.73;5.13;;;;;;;;;;5091419;28;20486;-79
2023/01/22 01:55:54;;;;;;;10.13;5.10;;;-1.10;99.90;;;;;;5092596;28;20448;-78
2023/01/22 01:58:21;;;;;;;9.30;5.93;;;;;;;;;;5092532;28;20442;-79
2023/01/22 02:00:54;;;;;;;10.90;7.30;;;-1.10;99.90;;;;;;5092331;28;20463;-78
2023/01/22 02:03:21;;;;;;;9.50;5.00;;;;;;;;;;5092202;28;20446;-77
2023/01/22 02:05:48;;;;;;;10.77;6.30;;;;;;;;;;5092523;28;20935;-78
2023/01/22 02:08:15;;;;;;;13.83;6.50;;;;;;;;;;5091237;28;20792;-79
2023/01/22 02:10:43;;;;;;;5.90;4.40;;;;;;;;;;5092566;28;20444;-79
2023/01/22 02:13:12;;;;;;;11.70;6.43;;;-1.00;99.90;;;;;;5092268;28;20453;-78
2023/01/22 02:15:40;;;;;;;9.40;6.50;;;-1.00;99.90;;;;;;5092484;28;20442;-77
2023/01/22 02:18:08;;;;;;;11.27;6.40;;;;;;;;;;5094323;28;20482;-78
2023/01/22 02:20:37;;;;;;;9.37;5.77;;;;;;;;;;5096157;28;20502;-79
2023/01/22 02:23:04;;;;;;;9.50;6.10;;;;;;;;;;5095268;28;20455;-79
2023/01/22 02:25:32;;;;;;;10.73;6.07;;;;;;;;;;5096562;28;20449;-79
2023/01/22 02:27:59;;;;;;;8.20;6.27;;;;;;;;;;5096628;28;20493;-79
2023/01/22 02:30:26;;;;;;;10.20;6.57;;;;;;;;;;5096497;28;20447;-79
2023/01/22 02:32:53;;;;;;;7.73;4.90;;;;;;;;;;5096424;28;20790;-78
2023/01/22 02:35:21;;;;;;;14.20;6.90;;;;;;;;;;5096534;28;20450;-79
2023/01/22 02:37:49;;;;;;;12.53;7.00;;;;;;;;;;5093968;28;20458;-79
2023/01/22 02:40:16;;;;;;;13.77;7.40;;;;;;;;;;5096164;28;20843;-78
2023/01/22 02:42:43;;;;;;;8.07;6.07;;;;;;;;;;5096317;28;20455;-79
2023/01/22 02:45:11;;;;;;;8.83;4.70;;;-0.70;99.90;;;;;;5096301;28;20456;-79
2023/01/22 02:47:38;;;;;;;11.27;6.60;;;;;;;;;;5096264;28;20452;-79
2023/01/22 02:50:06;;;;;;;12.40;7.73;;;-1.00;99.90;;;;;;5096056;28;20441;-79
2023/01/22 02:52:33;;;;;;;9.90;6.63;;;;;;;;;;5094386;28;20461;-79
2023/01/22 02:55:02;;;;;;;9.03;6.33;;;-1.10;99.90;;;;;;5095947;28;20447;-79
2023/01/22 02:57:30;;;;;;;13.60;7.70;;;-1.00;99.90;;;;;;5092984;28;20522;-79
2023/01/22 02:59:57;;;;;;;13.20;7.30;;;;;;;;;;5095889;28;20487;-79
2023/01/22 03:02:24;;;;;;;9.60;6.20;;;;;;;;;;5095924;28;20445;-79
2023/01/22 03:04:51;;;;;;;8.13;5.13;;;;;;;;;;5095571;28;20448;-79
2023/01/22 03:07:18;;;;;;;9.03;6.30;;;;;;;;;;5095723;28;20451;-79
2023/01/22 03:09:45;;;;;;;10.47;5.93;;;;;;;;;;5094797;28;20474;-78
2023/01/22 03:12:13;;;;;;;3.83;3.30;;;;;;;;;;5095629;28;20443;-79
2023/01/22 03:22:55;;;;;;;10.50;6.50;;;;;;;;;;5094237;28;20479;-79
2023/01/22 03:25:23;;;;;;;8.97;4.87;;;;;;;;;;5095218;28;20458;-79
2023/01/22 03:30:32;;;;;;;12.57;6.40;;;;;;;;;;5092901;28;20954;-79
2023/01/22 03:32:59;;;;;;;15.80;7.10;;;;;;;;;;5095141;28;20451;-79
2023/01/22 03:35:26;;;;;;;8.73;6.00;;;;;;;;;;5095143;28;20437;-79
2023/01/22 03:37:53;;;;;;;9.87;5.90;;;;;;;;;;5093823;28;20451;-79
2023/01/22 03:40:20;;;;;;;12.07;6.80;;;;;;;;;;5094973;28;20488;-79
2023/01/22 03:42:47;;;;;;;13.80;7.37;;;;;;;;;;5095023;28;20456;-79
2023/01/22 03:45:16;;;;;;;10.07;6.37;;;;;;;;;;5094848;28;20456;-79
2023/01/22 03:47:43;;;;;;;14.17;8.13;;;;;;;;;;5094940;28;20451;-79
2023/01/22 03:50:11;;;;;;;12.37;7.47;;;;;;;;;;5094855;28;20444;-79
2023/01/22 03:52:38;;;;;;;11.80;8.57;;;;;;;;;;5093160;28;20463;-79
2023/01/22 03:55:05;;;;;;;12.27;7.50;;;;;;;;;;5094609;28;20479;-79
2023/01/22 03:57:32;;;;;;;9.30;6.77;;;;;;;;;;5094677;28;20459;-79
2023/01/22 04:00:00;;;;;;;13.83;7.40;;;;;;;;;;5094984;28;20487;-79
2023/01/22 04:02:29;;;;;;;14.60;8.07;;;;;;;;;;5095334;28;20471;-79
2023/01/22 04:04:56;;;;;;;15.13;7.77;;;;;;;;;;5095411;28;20445;-79
2023/01/22 04:07:23;;;;;;;14.63;7.97;;;;;;;;;;5095296;28;20451;-79
2023/01/22 04:09:50;;;;;;;12.83;7.07;;;;;;;;;;5094735;28;20449;-79
2023/01/22 04:12:17;;;;;;;12.43;7.20;;;;;;;;;;5094570;28;20447;-79
2023/01/22 04:14:45;;;;;;;12.73;7.80;;;;;;;;;;5094587;28;20535;-79
2023/01/22 04:17:12;;;;;;;16.93;8.53;;;;;;;;;;5094286;28;20446;-79
2023/01/22 04:19:40;;;;;;;15.03;7.87;;;;;;;;;;5094183;28;21197;-79
2023/01/22 04:22:07;;;;;;;12.13;8.53;;;;;;;;;;5094318;28;20455;-79
2023/01/22 04:24:35;;;;;;;16.27;7.80;;;;;;;;;;5092469;28;20456;-79
2023/01/22 04:27:02;;;;;;;12.33;6.77;;;;;;;;;;5094209;28;20476;-79
2023/01/22 04:29:29;;;;;;;12.13;7.87;;;;;;;;;;5094096;28;20453;-78
2023/01/22 04:31:56;;;;;;;10.00;6.10;;;;;;;;;;5094058;28;20471;-79
2023/01/22 04:34:23;;;;;;;11.97;6.30;;;;;;;;;;5094100;28;20801;-79
2023/01/22 04:36:51;;;;;;;14.10;8.20;;;-0.90;99.90;;;;;;5094017;28;20955;-79
2023/01/22 04:39:18;;;;;;;13.60;8.30;;;;;;;;;;5090884;28;20445;-79
2023/01/22 04:41:45;;;;;;;17.00;7.30;;;;;;;;;;5093281;28;20459;-79
2023/01/22 04:44:12;;;;;;;11.57;5.97;;;;;;;;;;5093870;28;20449;-79
2023/01/22 04:46:39;;;;;;;12.63;8.17;;;;;;;;;;5093958;28;20470;-79
2023/01/22 04:49:07;;;;;;;14.03;8.47;;;;;;;;;;5093770;28;20817;-79
2023/01/22 04:51:34;;;;;;;12.33;7.10;;;;;;;;;;5093678;28;20473;-79
2023/01/22 04:54:02;;;;;;;13.63;7.20;;;-0.90;99.90;;;;;;5092315;28;20448;-78
2023/01/22 04:56:29;;;;;;;9.10;6.60;;;;;;;;;;5093672;28;20966;-79
2023/01/22 04:58:56;;;;;;;9.40;6.80;;;;;;;;;;5093557;28;20445;-79
2023/01/22 05:01:23;;;;;;;15.40;8.30;;;;;;;;;;5093515;28;20489;-79
2023/01/22 05:03:50;;;;;;;15.37;8.97;;;;;;;;;;5093510;28;20445;-79
2023/01/22 05:06:17;;;;;;;14.10;8.47;;;;;;;;;;5093377;28;20448;-79
2023/01/22 05:08:44;;;;;;;13.73;7.80;;;;;;;;;;5092100;28;20444;-79
2023/01/22 05:11:12;;;;;;;11.57;7.60;;;;;;;;;;5093360;28;20827;-79
2023/01/22 05:13:39;;;;;;;14.73;8.03;;;;;;;;;;5093402;28;20441;-80
2023/01/22 05:16:07;;;;;;;13.80;7.33;;;;;;;;;;5093229;28;20459;-79
2023/01/22 05:18:34;;;;;;;11.40;7.90;;;;;;;;;;5093032;28;20860;-79
2023/01/22 05:21:01;;;;;;;11.63;7.10;;;;;;;;;;5093044;28;20484;-79
2023/01/22 05:23:28;;;;;;;14.97;7.80;;;;;;;;;;5092054;28;20455;-79
2023/01/22 05:25:55;;;;;;;18.73;7.90;;;;;;;;;;5093188;28;20449;-79
2023/01/22 05:28:23;;;;;;;16.40;7.90;;;-0.70;99.90;;;;;;5092826;28;20810;-79
2023/01/22 05:30:50;;;;;;;15.43;9.00;;;;;;;;;;5093158;28;20822;-79
2023/01/22 05:33:17;;;;;;;9.43;6.20;;;;;;;;;;5093125;28;20938;-79
2023/01/22 05:35:45;;;;;;;17.27;9.13;;;;;;;;;;5092911;28;20449;-79
2023/01/22 05:38:12;;;;;;;13.67;8.47;;;;;;;;;;5091560;28;20441;-79
2023/01/22 05:40:39;;;;;;;11.13;7.80;;;;;;;;;;5090634;28;20502;-79
2023/01/22 05:43:06;;;;;;;13.47;8.43;;;;;;;;;;5092981;28;20449;-79
2023/01/22 05:45:34;;;;;;;18.00;8.80;;;;;;;;;;5093081;28;20445;-79
2023/01/22 05:48:01;;;;;;;17.27;9.90;;;;;;;;;;5093038;28;20453;-78
2023/01/22 05:50:28;;;;;;;15.97;8.90;;;;;;;;;;5092944;28;20464;-79
2023/01/22 05:52:56;;;;;;;13.40;8.20;;;;;;;;;;5095423;28;20452;-79
2023/01/22 05:55:23;;;;;;;15.67;8.30;;;;;;;;;;5097120;28;20445;-79
2023/01/22 05:57:50;;;;;;;12.00;7.07;;;;;;;;;;5097049;28;20463;-79
2023/01/22 06:00:18;;;;;;;14.73;9.10;;;;;;;;;;5096997;28;20488;-79
2023/01/22 06:02:47;;;;;;;13.30;7.97;;;;;;;;;;5096928;28;20453;-79
2023/01/22 06:05:14;;;;;;;14.07;7.80;;;;;;;;;;5096868;28;20451;-79
2023/01/22 06:07:41;;;;;;;15.83;9.80;;;;;;;;;;5095603;28;20448;-79
2023/01/22 06:10:09;;;;;;;16.57;9.30;;;-1.10;99.90;;;;;;5096859;28;20460;-79
2023/01/22 06:12:36;;;;;;;12.80;7.90;;;;;;;;;;5096578;28;20441;-79
2023/01/22 06:15:03;;;;;;;15.50;9.20;;;;;;;;;;5096723;28;20467;-79
2023/01/22 06:17:30;;;;;;;13.97;8.50;;;;;;;;;;5096397;28;20472;-79
2023/01/22 06:19:58;;;;;;;15.43;8.00;;;-0.70;99.90;;;;;;5096468;28;20805;-79
2023/01/22 06:22:25;;;;;;;13.80;8.13;;;;;;;;;;5095851;28;20451;-79
2023/01/22 06:24:52;;;;;;;14.60;8.57;;;;;;;;;;5096505;28;20444;-79
2023/01/22 06:27:19;;;;;;;15.07;8.73;;;;;;;;;;5096528;28;20452;-79
2023/01/22 06:29:46;;;;;;;14.03;9.00;;;;;;;;;;5096263;28;20451;-79
2023/01/22 06:32:13;;;;;;;15.10;8.70;;;;;;;;;;5094094;28;20945;-79
2023/01/22 06:34:42;;;;;;;17.23;8.30;;;;;;;;;;5096354;28;20444;-79
2023/01/22 06:37:11;;;;;;;14.83;9.57;;;;;;;;;;5096299;28;20488;-79
2023/01/22 06:39:38;;;;;;;14.27;7.43;;;;;;;;;;5094998;28;20455;-79
2023/01/22 06:42:06;;;;;;;14.60;7.63;;;-0.60;99.90;;;;;;5096009;28;21056;-79
2023/01/22 06:44:33;;;;;;;9.20;7.40;;;;;;;;;;5095680;28;20449;-79
2023/01/22 06:47:00;;;;;;;11.40;7.27;;;;;;;;;;5096021;28;20456;-79
2023/01/22 06:49:27;;;;;;;15.10;8.47;;;;;;;;;;5095542;28;20462;-79
2023/01/22 06:51:54;;;;;;;12.63;7.50;;;;;;;;;;5096335;28;21082;-79
2023/01/22 06:54:22;;;;;;;12.23;8.30;;;-0.70;99.90;;;;;;5094843;28;20928;-79
2023/01/22 06:56:49;;;;;;;14.93;9.20;;;;;;;;;;5096058;28;20446;-79
2023/01/22 06:59:16;;;;;;;10.87;7.33;;;;;;;;;;5096189;28;20955;-79
2023/01/22 07:01:43;;;;;;;12.20;8.20;;;;;;;;;;5096119;28;20489;-79
2023/01/22 07:04:10;;;;;;;14.87;8.20;;;;;;;;;;5095292;28;20456;-79
2023/01/22 07:06:37;;;;;;;15.43;7.77;;;;;;;;;;5096161;28;20502;-79
2023/01/22 07:09:04;;;;;;;11.70;7.47;;;;;;;;;;5094669;28;20890;-78
2023/01/22 07:11:33;;;;;;;16.33;8.60;;;-0.60;99.90;;;;;;5095691;28;20448;-78
2023/01/22 07:14:00;;;;;;;18.80;8.33;;;;;;;;;;5095703;28;20460;-79
2023/01/22 07:16:27;;;;;;;14.70;8.10;;;;;;;;;;5095692;28;20444;-79
2023/01/22 07:18:54;;;;;;;14.80;7.90;;;;;;;;;;5095522;28;20472;-79
2023/01/22 07:21:21;;;;;;;14.97;8.93;;;;;;;;;;5095469;28;20495;-78
2023/01/22 07:23:48;;;;;;;13.77;8.33;;;;;;;;;;5089270;28;20936;-80
2023/01/22 07:26:16;;;;;;;22.43;10.47;;;;;;;;;;5095614;28;20449;-79
2023/01/22 07:28:45;;;;;;;14.67;9.30;;;;;;;;;;5095522;28;20455;-81
2023/01/22 07:31:13;;;;;;;12.83;8.10;;;;;;;;;;5089355;28;20445;-81
2023/01/22 07:33:40;;;;;;;14.67;8.20;;;;;;;;;;5094375;28;20472;-80
2023/01/22 07:36:07;;;;;;;19.73;10.70;;;;;;;;;;5095463;28;20473;-80
2023/01/22 07:38:34;;;;;;;17.10;8.77;;;;;;;;;;5096987;28;20441;-80
2023/01/22 07:41:02;;;;;;;12.20;6.70;;;;;;;;;;5098797;28;20483;-81
2023/01/22 07:43:29;;;;;;;15.07;9.00;;;;;;;;;;5092665;28;20452;-80
2023/01/22 07:45:57;;;;;;;11.93;8.10;;;;;;;;;;5095001;28;20460;-79
2023/01/22 07:48:24;;;;;;;10.77;7.10;;;;;;;;;;5095023;28;20510;-80
2023/01/22 07:50:51;;;;;;;12.67;8.27;;;;;;;;;;5094779;28;20461;-80
2023/01/22 07:53:19;;;;;;;13.40;8.03;;;;;;;;;;5093703;28;20766;-81
2023/01/22 07:55:46;;;;;;;14.53;8.20;;;;;;;;;;5094671;28;20452;-80
2023/01/22 07:58:13;;;;;;;13.23;8.27;;;;;;;;;;5094635;28;20472;-81
2023/01/22 08:00:40;;;;;;;13.10;8.07;;;;;;;;;;5094614;28;21060;-82
2023/01/22 08:03:10;;;;;;;14.60;10.40;;;;;;;;;;5094583;28;20449;-82
2023/01/22 08:05:37;;;;;;;17.10;11.43;;;;;;;;;;5094587;28;20463;-81
2023/01/22 08:08:05;;;;;;;27.47;11.83;;;;;;;;;;5093339;28;20529;-81
2023/01/22 08:10:32;;;;;;;27.20;11.63;;;;;;;;;;5094505;28;20468;-80
2023/01/22 08:12:59;;;;;;;21.97;11.23;;;;;;;;;;5094364;28;20440;-81
2023/01/22 08:15:26;;;;;;;25.73;13.20;;;;;;;;;;5094308;28;20441;-81
2023/01/22 08:17:53;;;;;;;19.47;10.60;;;;;;;;;;5094249;28;20500;-81
2023/01/22 08:20:21;;;;;;;18.63;9.93;;;;;;;;;;5094186;28;20488;-81
2023/01/22 08:22:48;;;;;;;16.37;8.80;;;;;;;;;;5093086;28;20495;-80
2023/01/22 08:25:15;;;;;;;15.07;9.33;;;;;;;;;;5094692;28;20445;-80
2023/01/22 08:27:43;;;;;;;19.13;10.87;;;;;;;;;;5094916;28;20792;-80
2023/01/22 08:30:11;;;;;;;18.00;9.83;;;-0.20;99.90;;;;;;5088238;28;20452;-81
2023/01/22 08:32:40;;;;;;;14.73;9.60;;;;;;;;;;5094148;28;20449;-81
2023/01/22 08:35:07;;;;;;;18.33;11.43;;;;;;;;;;5093970;28;20445;-81
2023/01/22 08:37:35;;;;;;;15.63;8.70;;;-0.10;99.90;;;;;;5092824;28;20445;-81
2023/01/22 08:40:02;;;;;;;11.17;7.10;;;;;;;;;;5093873;28;20791;-82
2023/01/22 08:42:29;;;;;;;11.97;6.93;;;;;;;;;;5093662;28;20492;-82
2023/01/22 08:44:56;;;;;;;13.00;7.27;;;;;;;;;;5094002;28;20809;-80
2023/01/22 08:47:24;;;;;;;15.97;8.50;;;;;;;;;;5093741;28;20451;-81
2023/01/22 08:49:51;;;;;;;17.20;8.10;;;;;;;;;;5093547;28;20537;-83
2023/01/22 08:52:18;;;;;;;17.37;9.63;;;;;;;;;;5093600;28;20453;-79
2023/01/22 08:54:47;;;;;;;17.10;9.83;;;;;;;;;;5092482;28;20445;-81
2023/01/22 08:57:14;;;;;;;24.87;10.70;;;;;;;;;;5093578;28;20459;-80
2023/01/22 08:59:41;;;;;;;11.30;7.60;;;;;;;;;;5093628;28;20452;-81
2023/01/22 09:02:10;;;;;;;11.60;8.20;;;;;;;;;;5093336;28;20570;-81
2023/01/22 09:04:37;;;;;;;13.30;6.80;;;;;;;;;;5093468;28;20448;-80
2023/01/22 09:07:04;;;;;;;14.93;8.97;;;;;;;;;;5093532;28;20471;-81
2023/01/22 09:09:31;;;;;;;17.03;9.23;;;;;;;;;;5092233;28;20437;-81
2023/01/22 09:11:59;;;;;;;17.00;10.33;;;;;;;;;;5093353;28;20445;-81
2023/01/22 09:14:27;;;;;;;14.53;9.40;;;;;;;;;;5092984;28;20452;-81
2023/01/22 09:16:54;;;;;;;12.10;7.30;;;;;;;;;;5093047;28;20448;-82
2023/01/22 09:19:21;;;;;;;14.80;9.10;;;;;;;;;;5093254;28;20444;-81
2023/01/22 09:21:48;;;;;;;16.07;9.00;;;;;;;;;;5093142;28;20861;-82
2023/01/22 09:24:15;;;;;;;15.10;9.10;;;;;;;;;;5092003;28;20452;-81
2023/01/22 09:26:42;;;;;;;54.53;22.93;;;;;;;;;;5092583;28;20448;-81
2023/01/22 09:29:10;;;;;;;63.47;27.80;;;;;;;;;;5093021;28;20854;-81
2023/01/22 09:31:38;;;;;;;25.70;12.90;;;;;;;;;;5093325;28;20437;-81
2023/01/22 09:34:05;;;;;;;15.23;8.67;;;;;;;;;;5093053;28;20449;-79
2023/01/22 09:36:32;;;;;;;16.70;8.77;;;;;;;;;;5093143;28;20448;-80
2023/01/22 09:38:59;;;;;;;18.93;9.83;;;;;;;;;;5091782;28;20445;-80
2023/01/22 09:41:29;;;;;;;14.60;7.77;;;0.80;99.90;;;;;;5092865;28;20484;-80
2023/01/22 09:44:00;;;;;;;12.83;8.37;;;0.80;99.90;;;;;;5087588;28;20840;-79
2023/01/22 09:46:34;;;;;;;14.20;8.00;;;0.80;99.90;;;;;;5092905;28;20448;-80
2023/01/22 09:49:07;;;;;;;15.40;6.47;;;0.90;99.90;;;;;;5092914;28;20460;-79
2023/01/22 09:51:34;;;;;;;11.33;7.00;;;;;;;;;;5090118;28;20448;-79
2023/01/22 09:54:03;;;;;;;16.87;8.87;;;1.00;99.90;;;;;;5091667;28;20457;-79
2023/01/22 09:56:36;;;;;;;14.80;9.50;;;1.20;99.90;;;;;;5092333;28;20558;-79
2023/01/22 09:59:05;;;;;;;12.20;7.60;;;1.20;99.90;;;;;;5092575;28;20451;-81
2023/01/22 10:01:34;;;;;;;11.13;6.83;;;1.40;99.90;;;;;;5092832;28;20484;-79
2023/01/22 10:04:05;;;;;;;11.37;6.63;;;1.60;99.90;;;;;;5092533;28;20452;-78
2023/01/22 10:06:32;;;;;;;25.57;11.77;;;;;;;;;;5092881;28;20452;-79
2023/01/22 10:09:08;;;;;;;15.30;8.93;;;1.60;99.90;;;;;;5091517;28;20967;-81
2023/01/22 10:11:37;;;;;;;10.13;7.10;;;1.40;99.90;;;;;;5092325;28;20447;-80
2023/01/22 10:14:06;;;;;;;10.77;6.60;;;;;;;;;;5092746;28;20449;-80
2023/01/22 10:16:34;;;;;;;12.53;7.53;;;;;;;;;;5092814;28;20452;-81
2023/01/22 10:19:05;;;;;;;10.27;6.17;;;1.40;99.90;;;;;;5092627;28;20503;-81
2023/01/22 10:21:41;;;;;;;9.50;5.90;;;1.50;99.90;;;;;;5092473;28;20834;-80
2023/01/22 10:24:10;;;;;;;11.63;7.07;;;1.30;99.90;;;;;;5091579;28;20440;-81
2023/01/22 10:26:38;;;;;;;9.27;5.83;;;;;;;;;;5092753;28;20448;-82
2023/01/22 10:29:06;;;;;;;9.93;6.40;;;;;;;;;;5092606;28;20449;-80
2023/01/22 10:31:36;;;;;;;9.23;5.73;;;;;;;;;;5092605;28;20440;-81
2023/01/22 10:34:04;;;;;;;10.70;6.10;;;;;;;;;;5092580;28;20437;-81
2023/01/22 10:36:31;;;;;;;22.93;9.73;;;;;;;;;;5092741;28;20445;-81
2023/01/22 10:39:05;;;;;;;13.83;6.90;;;;;;;;;;5093224;28;20453;-81
2023/01/22 10:41:32;;;;;;;10.07;6.40;;;;;;;;;;5096456;28;20483;-80
2023/01/22 10:44:08;;;;;;;14.20;7.90;;;;;;;;;;5096263;28;20449;-82
2023/01/22 10:46:37;;;;;;;13.53;6.83;;;;;;;;;;5096104;28;20958;-80
2023/01/22 10:49:07;;;;;;;27.00;13.30;;;1.40;99.90;;;;;;5096002;28;20464;-81
2023/01/22 10:51:37;;;;;;;24.67;11.40;;;1.30;99.90;;;;;;5096216;28;20449;-81
2023/01/22 10:54:15;;;;;;;35.20;14.00;;;1.30;99.90;;;;;;5094826;28;20451;-81
2023/01/22 10:56:43;;;;;;;17.07;8.13;;;;;;;;;;5095817;28;20440;-80
2023/01/22 10:59:19;;;;;;;36.43;15.13;;;1.50;99.90;;;;;;5095944;28;20881;-79
2023/01/22 11:01:48;;;;;;;58.67;23.10;;;;;;;;;;5095886;28;20492;-80
2023/01/22 11:04:21;;;;;;;57.87;19.73;;;1.30;99.90;;;;;;5096216;28;20445;-81
2023/01/22 11:06:51;;;;;;;22.80;12.00;;;1.40;99.90;;;;;;5099375;28;20436;-81
2023/01/22 11:09:20;;;;;;;15.47;9.77;;;;;;;;;;5097290;28;20444;-82
2023/01/22 11:11:54;;;;;;;15.53;8.00;;;1.50;99.90;;;;;;5095612;28;20457;-81
2023/01/22 11:14:24;;;;;;;30.03;12.90;;;1.50;99.90;;;;;;5095682;28;20440;-81
2023/01/22 11:16:54;;;;;;;15.80;8.10;;;;;;;;;;5095500;28;20444;-81
2023/01/22 11:19:23;;;;;;;13.07;6.63;;;;;;;;;;5095504;28;20444;-81
2023/01/22 11:21:55;;;;;;;22.13;13.00;;;1.40;99.90;;;;;;5095252;28;20480;-81
2023/01/22 11:24:25;;;;;;;31.70;16.07;;;1.50;99.90;;;;;;5094263;28;20464;-82
2023/01/22 11:27:01;;;;;;;19.17;10.53;;;;;;;;;;5095266;28;20448;-82
2023/01/22 11:29:43;;;;;;;14.27;9.20;;;1.50;99.90;;;;;;5095285;28;20444;-82
2023/01/22 11:32:33;;;;;;;12.20;7.30;;;;;;;;;;5095209;28;20453;-81
2023/01/22 11:35:05;;;;;;;13.17;7.80;;;;;;;;;;5095193;28;20440;-82
2023/01/22 11:37:44;;;;;;;14.30;8.70;;;;;;;;;;5094176;28;20499;-82
2023/01/22 11:40:22;;;;;;;12.40;7.77;;;1.30;99.90;;;;;;5095107;28;20444;-81
2023/01/22 11:43:01;;;;;;;20.97;12.73;;;;;;;;;;5092985;28;20492;-80
2023/01/22 11:45:42;;;;;;;16.70;9.07;;;1.30;99.90;;;;;;5074564;28;20818;-81
2023/01/22 11:48:25;;;;;;;15.17;9.70;;;1.30;99.90;;;;;;5074569;28;20477;-81
2023/01/22 11:50:58;;;;;;;12.20;8.77;;;1.40;99.90;;;;;;5074118;28;20445;-81
2023/01/22 11:53:42;;;;;;;20.80;13.47;;;1.20;99.90;;;;;;5073346;28;20457;-81
2023/01/22 11:56:15;;;;;;;14.40;8.30;;;;;;;;;;5074430;28;20448;-81
2023/01/22 11:58:46;;;;;;;19.23;10.70;;;;;;;;;;5074543;28;20445;-81
2023/01/22 12:01:24;;;;;;;12.90;7.63;;;1.50;99.90;;;;;;5074435;28;20446;-81
2023/01/22 12:04:20;;;;;;;11.93;7.23;;;1.40;99.90;;;;;;5074288;28;20493;-81
2023/01/22 12:07:10;;;;;;;13.43;8.53;;;1.50;99.90;;;;;;5074269;28;20978;-81
2023/01/22 12:09:42;;;;;;;13.83;7.47;;;;;;;;;;5072866;28;20456;-81
2023/01/22 12:12:21;;;;;;;25.80;15.30;;;1.60;99.90;;;;;;5074157;28;20845;-81
2023/01/22 12:15:17;;;;;;;19.67;11.37;;;1.80;99.90;;;;;;5074081;28;20445;-80
2023/01/22 12:17:53;;;;;;;10.50;7.47;;;;;;;;;;5073862;28;20806;-81
2023/01/22 12:20:44;;;;;;;11.77;7.20;;;1.60;99.90;;;;;;5073731;28;20442;-81
2023/01/22 12:23:15;;;;;;;13.67;8.70;;;;;;;;;;5072761;28;20857;-80
2023/01/22 12:25:45;;;;;;;14.27;9.17;;;;;;;;;;5074050;28;20442;-81
2023/01/22 12:28:15;;;;;;;16.70;8.50;;;;;;;;;;5073818;28;20446;-80
2023/01/22 12:30:50;;;;;;;10.30;7.57;;;1.70;99.90;;;;;;5073549;28;20457;-80
2023/01/22 12:33:22;;;;;;;12.50;7.80;;;2.50;99.90;;;;;;5073778;28;20447;-80
2023/01/22 12:35:52;;;;;;;10.00;6.23;;;1.60;99.90;;;;;;5073671;28;20456;-81
2023/01/22 12:38:30;;;;;;;8.77;6.43;;;1.60;99.90;;;;;;5072392;28;20449;-78
2023/01/22 12:41:15;;;;;;;11.20;6.27;;;1.70;99.90;;;;;;5073484;28;20442;-80
2023/01/22 12:43:48;;;;;;;11.40;6.27;;;1.70;99.90;;;;;;5073461;28;20992;-78
2023/01/22 12:46:24;;;;;;;8.80;6.00;;;1.70;99.90;;;;;;5073429;28;20457;-77
2023/01/22 12:48:59;;;;;;;9.97;6.07;;;1.70;99.90;;;;;;5073331;28;20528;-78
2023/01/22 12:51:36;;;;;;;18.67;12.10;;;1.70;99.90;;;;;;5073130;28;20457;-78
2023/01/22 12:54:10;;;;;;;9.50;7.23;;;;;;;;;;5072243;28;20445;-78
2023/01/22 12:56:37;;;;;;;9.30;6.10;;;;;;;;;;5073289;28;20446;-79
2023/01/22 12:59:04;;;;;;;8.43;5.50;;;;;;;;;;5073029;28;20441;-79
2023/01/22 13:01:33;;;;;;;13.40;6.70;;;1.40;99.90;;;;;;5071367;28;20811;-77
2023/01/22 13:04:02;;;;;;;7.73;5.60;;;1.50;99.90;;;;;;5073123;28;21040;-77
2023/01/22 13:06:34;;;;;;;9.33;5.27;;;1.30;99.90;;;;;;5073262;28;20481;-78
2023/01/22 13:09:02;;;;;;;10.97;6.70;;;;;;;;;;5071914;28;20813;-80
2023/01/22 13:11:31;;;;;;;9.47;7.00;;;1.30;99.90;;;;;;5073086;28;20450;-78
2023/01/22 13:14:08;;;;;;;10.80;7.10;;;1.30;99.90;;;;;;5072922;28;20443;-80
2023/01/22 13:16:36;;;;;;;9.93;6.63;;;1.30;99.90;;;;;;5072693;28;20449;-81
2023/01/22 13:19:17;;;;;;;9.50;6.13;;;;;;;;;;5072856;28;21022;-79
2023/01/22 13:21:47;;;;;;;11.23;6.60;;;1.40;99.90;;;;;;5073117;28;20533;-79
2023/01/22 13:24:17;;;;;;;9.50;5.63;;;1.30;99.90;;;;;;5071716;28;20497;-80
2023/01/22 13:26:52;;;;;;;9.20;6.53;;;1.30;99.90;;;;;;5072939;28;20457;-78
2023/01/22 13:29:23;;;;;;;12.40;8.50;;;1.20;99.90;;;;;;5069767;28;20464;-76
2023/01/22 13:31:54;;;;;;;10.93;7.57;;;;;;;;;;5092941;28;20449;-77
2023/01/22 13:34:22;;;;;;;8.43;5.83;;;;;;;;;;5092574;28;20471;-81
2023/01/22 13:36:51;;;;;;;10.30;6.53;;;1.20;99.90;;;;;;5093178;28;20833;-81
2023/01/22 13:39:19;;;;;;;13.47;8.57;;;;;;;;;;5091892;28;20838;-80
2023/01/22 13:41:52;;;;;;;18.27;12.00;;;1.20;99.90;;;;;;5094471;28;20806;-80
2023/01/22 13:44:21;;;;;;;22.53;13.30;;;1.20;99.90;;;;;;5092600;28;20488;-80
2023/01/22 13:46:49;;;;;;;17.80;8.77;;;1.20;99.90;;;;;;5092890;28;20824;-77
2023/01/22 13:49:21;;;;;;;11.60;6.60;;;1.20;99.90;;;;;;5092453;28;20444;-82
2023/01/22 13:51:48;;;;;;;13.20;6.97;;;;;;;;;;5092877;28;20440;-79
2023/01/22 13:54:21;;;;;;;8.77;6.20;;;1.20;99.90;;;;;;5089997;28;20444;-85
2023/01/22 13:56:48;;;;;;;15.00;8.60;;;;;;;;;;5092929;28;20444;-78
2023/01/22 13:59:20;;;;;;;11.10;6.77;;;1.10;99.90;;;;;;5092516;28;20437;-79
2023/01/22 14:01:47;;;;;;;13.13;7.70;;;;;;;;;;5092737;28;20444;-80
2023/01/22 14:04:35;;;;;;;18.67;11.50;;;1.10;99.90;;;;;;5092707;28;20524;-79
2023/01/22 14:07:03;;;;;;;14.00;9.53;;;;;;;;;;5084349;28;20456;-79
2023/01/22 14:09:32;;;;;;;10.03;6.13;;;1.10;99.90;;;;;;5091472;28;20449;-79
2023/01/22 14:12:01;;;;;;;9.20;6.00;;;;;;;;;;5092997;28;20448;-79
2023/01/22 14:14:39;;;;;;;10.60;6.33;;;1.10;99.90;;;;;;5096657;28;20449;-79
2023/01/22 14:17:06;;;;;;;11.50;8.03;;;;;;;;;;5096399;28;20501;-78
2023/01/22 14:19:33;;;;;;;10.83;7.10;;;;;;;;;;5095248;28;20825;-81
2023/01/22 14:22:01;;;;;;;12.43;7.30;;;1.10;99.90;;;;;;5096577;28;20452;-79